Dockton, Washington
Current Conditions -  °F | °C
As of 4:53 AM on Sunday 21 Dec 2014 (Local Time) from KSEA Reporting Station
Broken Clouds Broken Clouds  
Wind Chill: 51°   Ceiling: 10000
Heat Index: 51°   Visibility: 10mi
Dew Point: 45°   Wind: 13mph
Humidity: 80%   Direction: 220°SW
Pressure: 29.76"   Gusts: 22mph
Location:  47.4122°N, 122.472°W
Report Text: KSEA 211253Z 22011G19KT 10SM FEW010 BKN100 11/07 A2976 RMK AO2 SLP086 T01060072
Loading
Personal Weather Stations






























Interactive Weather Map New forecast layout! Learn more

10-Day Weather Forecast

Advertisements
Track Severe Weather on mobile